sensor_id;sensor_type;location;lat;lon;timestamp;pressure;altitude;pressure_sealevel;temperature;humidity
65872;BME280;52653;50.080;21.992;2023-01-23T00:00:16;100573.14;;;2.99;91.57
65872;BME280;52653;50.080;21.992;2023-01-23T00:03:18;100571.05;;;2.99;91.74
65872;BME280;52653;50.080;21.992;2023-01-23T00:06:14;100579.79;;;3.01;91.71
65872;BME280;52653;50.080;21.992;2023-01-23T00:09:08;100587.02;;;3.04;91.48
65872;BME280;52653;50.080;21.992;2023-01-23T00:12:01;100582.13;;;3.06;91.22
65872;BME280;52653;50.080;21.992;2023-01-23T00:14:55;100585.31;;;3.12;91.36
65872;BME280;52653;50.080;21.992;2023-01-23T00:17:39;100584.15;;;3.20;91.75
65872;BME280;52653;50.080;21.992;2023-01-23T00:20:27;100590.60;;;3.26;91.52
65872;BME280;52653;50.080;21.992;2023-01-23T00:23:20;100593.63;;;3.27;91.33
65872;BME280;52653;50.080;21.992;2023-01-23T00:26:15;100594.63;;;3.27;91.34
65872;BME280;52653;50.080;21.992;2023-01-23T00:29:08;100597.59;;;3.27;91.37
65872;BME280;52653;50.080;21.992;2023-01-23T00:32:02;100595.52;;;3.23;91.11
65872;BME280;52653;50.080;21.992;2023-01-23T00:34:56;100595.38;;;3.12;90.24
65872;BME280;52653;50.080;21.992;2023-01-23T00:37:49;100593.77;;;3.00;90.43
65872;BME280;52653;50.080;21.992;2023-01-23T00:40:35;100595.45;;;2.90;90.52
65872;BME280;52653;50.080;21.992;2023-01-23T00:43:21;100594.25;;;2.87;91.10
65872;BME280;52653;50.080;21.992;2023-01-23T00:46:14;100595.18;;;2.88;91.73
65872;BME280;52653;50.080;21.992;2023-01-23T00:49:07;100598.10;;;2.95;92.07
65872;BME280;52653;50.080;21.992;2023-01-23T00:52:00;100600.98;;;3.06;92.27
65872;BME280;52653;50.080;21.992;2023-01-23T00:54:53;100601.84;;;3.17;92.52
65872;BME280;52653;50.080;21.992;2023-01-23T00:57:46;100601.60;;;3.27;92.51
65872;BME280;52653;50.080;21.992;2023-01-23T01:00:39;100605.42;;;3.35;92.36
65872;BME280;52653;50.080;21.992;2023-01-23T01:03:32;100609.48;;;3.33;91.42
65872;BME280;52653;50.080;21.992;2023-01-23T01:06:25;100607.88;;;3.20;90.51
65872;BME280;52653;50.080;21.992;2023-01-23T01:09:20;100611.04;;;3.09;90.50
65872;BME280;52653;50.080;21.992;2023-01-23T01:12:13;100605.84;;;3.05;90.68
65872;BME280;52653;50.080;21.992;2023-01-23T01:15:09;100607.16;;;3.04;90.84
65872;BME280;52653;50.080;21.992;2023-01-23T01:18:03;100613.77;;;3.05;90.65
65872;BME280;52653;50.080;21.992;2023-01-23T01:20:50;100620.27;;;3.10;90.93
65872;BME280;52653;50.080;21.992;2023-01-23T01:23:37;100616.17;;;3.19;91.48
65872;BME280;52653;50.080;21.992;2023-01-23T01:26:30;100618.50;;;3.25;91.27
65872;BME280;52653;50.080;21.992;2023-01-23T01:29:24;100622.14;;;3.25;90.97
65872;BME280;52653;50.080;21.992;2023-01-23T01:32:17;100626.49;;;3.25;91.00
65872;BME280;52653;50.080;21.992;2023-01-23T01:35:12;100624.35;;;3.20;90.45
65872;BME280;52653;50.080;21.992;2023-01-23T01:37:57;100621.05;;;3.08;90.17
65872;BME280;52653;50.080;21.992;2023-01-23T01:40:50;100626.51;;;3.03;90.56
65872;BME280;52653;50.080;21.992;2023-01-23T01:43:43;100625.17;;;3.04;90.81
65872;BME280;52653;50.080;21.992;2023-01-23T01:46:37;100626.00;;;3.04;90.65
65872;BME280;52653;50.080;21.992;2023-01-23T01:49:32;100626.45;;;3.02;90.69
65872;BME280;52653;50.080;21.992;2023-01-23T01:52:20;100632.98;;;3.05;91.05
65872;BME280;52653;50.080;21.992;2023-01-23T01:55:14;100640.89;;;3.10;91.18
65872;BME280;52653;50.080;21.992;2023-01-23T01:57:59;100639.48;;;3.17;91.52
65872;BME280;52653;50.080;21.992;2023-01-23T02:00:52;100643.70;;;3.15;90.72
65872;BME280;52653;50.080;21.992;2023-01-23T02:03:46;100648.66;;;3.10;90.74
65872;BME280;52653;50.080;21.992;2023-01-23T02:06:35;100651.89;;;3.01;90.59
65872;BME280;52653;50.080;21.992;2023-01-23T02:09:29;100648.14;;;2.91;90.53
65872;BME280;52653;50.080;21.992;2023-01-23T02:12:24;100644.04;;;2.84;90.70
65872;BME280;52653;50.080;21.992;2023-01-23T02:15:21;100648.21;;;2.81;90.74
65872;BME280;52653;50.080;21.992;2023-01-23T02:18:07;100657.86;;;2.87;91.69
65872;BME280;52653;50.080;21.992;2023-01-23T02:21:04;100660.34;;;3.00;92.15
65872;BME280;52653;50.080;21.992;2023-01-23T02:24:13;100658.89;;;3.06;91.47
65872;BME280;52653;50.080;21.992;2023-01-23T02:27:10;100653.92;;;3.11;91.42
65872;BME280;52653;50.080;21.992;2023-01-23T02:29:56;100649.05;;;3.18;91.62
65872;BME280;52653;50.080;21.992;2023-01-23T02:32:49;100648.23;;;3.23;91.46
65872;BME280;52653;50.080;21.992;2023-01-23T02:35:41;100646.79;;;3.18;90.74
65872;BME280;52653;50.080;21.992;2023-01-23T02:38:38;100646.11;;;3.07;90.59
65872;BME280;52653;50.080;21.992;2023-01-23T02:41:34;100643.75;;;2.97;90.81
65872;BME280;52653;50.080;21.992;2023-01-23T02:44:28;100643.55;;;2.89;91.11
65872;BME280;52653;50.080;21.992;2023-01-23T02:47:22;100639.91;;;2.89;91.67
65872;BME280;52653;50.080;21.992;2023-01-23T02:50:16;100642.86;;;2.89;91.55
65872;BME280;52653;50.080;21.992;2023-01-23T02:53:09;100647.84;;;2.96;92.22
65872;BME280;52653;50.080;21.992;2023-01-23T02:56:06;100656.27;;;3.06;92.34
65872;BME280;52653;50.080;21.992;2023-01-23T02:59:00;100659.25;;;3.14;92.16
65872;BME280;52653;50.080;21.992;2023-01-23T03:02:00;100659.06;;;3.25;92.40
65872;BME280;52653;50.080;21.992;2023-01-23T03:04:54;100654.27;;;3.34;91.99
65872;BME280;52653;50.080;21.992;2023-01-23T03:07:47;100658.92;;;3.42;91.60
65872;BME280;52653;50.080;21.992;2023-01-23T03:10:28;100661.13;;;3.36;90.44
65872;BME280;52653;50.080;21.992;2023-01-23T03:13:24;100660.92;;;3.24;90.19
65872;BME280;52653;50.080;21.992;2023-01-23T03:16:18;100661.35;;;3.18;90.76
65872;BME280;52653;50.080;21.992;2023-01-23T03:19:11;100665.05;;;3.12;90.61
65872;BME280;52653;50.080;21.992;2023-01-23T03:22:06;100666.20;;;3.03;90.60
65872;BME280;52653;50.080;21.992;2023-01-23T03:24:52;100668.73;;;2.94;90.57
65872;BME280;52653;50.080;21.992;2023-01-23T03:27:49;100671.79;;;2.89;90.93
65872;BME280;52653;50.080;21.992;2023-01-23T03:30:42;100673.73;;;2.86;90.93
65872;BME280;52653;50.080;21.992;2023-01-23T03:33:28;100668.21;;;2.83;90.89
65872;BME280;52653;50.080;21.992;2023-01-23T03:36:15;100665.96;;;2.82;91.36
65872;BME280;52653;50.080;21.992;2023-01-23T03:39:08;100663.81;;;2.85;91.48
65872;BME280;52653;50.080;21.992;2023-01-23T03:42:19;100664.05;;;2.86;91.38
65872;BME280;52653;50.080;21.992;2023-01-23T03:45:13;100661.18;;;2.84;91.35
65872;BME280;52653;50.080;21.992;2023-01-23T03:48:07;100663.66;;;2.85;91.74
65872;BME280;52653;50.080;21.992;2023-01-23T03:50:53;100659.86;;;2.85;91.69
65872;BME280;52653;50.080;21.992;2023-01-23T03:53:46;100655.40;;;2.86;91.80
65872;BME280;52653;50.080;21.992;2023-01-23T03:56:33;100653.77;;;2.89;91.94
65872;BME280;52653;50.080;21.992;2023-01-23T03:59:20;100654.16;;;2.90;91.73
65872;BME280;52653;50.080;21.992;2023-01-23T04:02:13;100653.90;;;2.91;91.81
65872;BME280;52653;50.080;21.992;2023-01-23T04:04:59;100658.63;;;2.97;91.89
65872;BME280;52653;50.080;21.992;2023-01-23T04:07:52;100664.38;;;3.05;92.29
65872;BME280;52653;50.080;21.992;2023-01-23T04:10:45;100666.15;;;3.13;92.24
65872;BME280;52653;50.080;21.992;2023-01-23T04:13:38;100664.40;;;3.20;91.95
65872;BME280;52653;50.080;21.992;2023-01-23T04:16:31;100671.15;;;3.12;91.09
65872;BME280;52653;50.080;21.992;2023-01-23T04:19:18;100678.02;;;3.04;91.10
65872;BME280;52653;50.080;21.992;2023-01-23T04:22:11;100677.52;;;3.01;91.68
65872;BME280;52653;50.080;21.992;2023-01-23T04:25:03;100680.13;;;3.00;92.14
65872;BME280;52653;50.080;21.992;2023-01-23T04:27:57;100687.02;;;3.04;92.17
65872;BME280;52653;50.080;21.992;2023-01-23T04:30:50;100693.86;;;3.05;91.71
65872;BME280;52653;50.080;21.992;2023-01-23T04:33:46;100694.17;;;3.08;91.81
65872;BME280;52653;50.080;21.992;2023-01-23T04:36:40;100695.66;;;3.14;91.84
65872;BME280;52653;50.080;21.992;2023-01-23T04:39:34;100699.96;;;3.17;91.62
65872;BME280;52653;50.080;21.992;2023-01-23T04:42:20;100709.04;;;3.22;91.66
65872;BME280;52653;50.080;21.992;2023-01-23T04:45:25;100714.20;;;3.25;91.18
65872;BME280;52653;50.080;21.992;2023-01-23T04:48:19;100710.08;;;3.26;90.81
65872;BME280;52653;50.080;21.992;2023-01-23T04:51:12;100717.79;;;3.24;90.75
65872;BME280;52653;50.080;21.992;2023-01-23T04:54:07;100721.06;;;3.28;91.13
65872;BME280;52653;50.080;21.992;2023-01-23T04:57:00;100725.80;;;3.29;91.19
65872;BME280;52653;50.080;21.992;2023-01-23T04:59:53;100727.83;;;3.20;90.36
65872;BME280;52653;50.080;21.992;2023-01-23T05:02:42;100727.82;;;3.05;90.28
65872;BME280;52653;50.080;21.992;2023-01-23T05:05:37;100732.13;;;2.93;90.51
65872;BME280;52653;50.080;21.992;2023-01-23T05:08:31;100729.37;;;2.86;90.70
65872;BME280;52653;50.080;21.992;2023-01-23T05:11:26;100733.97;;;2.84;91.03
65872;BME280;52653;50.080;21.992;2023-01-23T05:14:19;100734.55;;;2.82;91.16
65872;BME280;52653;50.080;21.992;2023-01-23T05:17:00;100732.76;;;2.84;91.45
65872;BME280;52653;50.080;21.992;2023-01-23T05:19:49;100735.77;;;2.90;91.69
65872;BME280;52653;50.080;21.992;2023-01-23T05:22:35;100733.25;;;3.02;92.47
65872;BME280;52653;50.080;21.992;2023-01-23T05:25:24;100739.76;;;3.15;92.59
65872;BME280;52653;50.080;21.992;2023-01-23T05:28:18;100741.42;;;3.25;92.42
65872;BME280;52653;50.080;21.992;2023-01-23T05:31:12;100742.77;;;3.32;92.41
65872;BME280;52653;50.080;21.992;2023-01-23T05:34:05;100745.63;;;3.33;91.80
65872;BME280;52653;50.080;21.992;2023-01-23T05:36:58;100740.81;;;3.27;91.23
65872;BME280;52653;50.080;21.992;2023-01-23T05:39:52;100745.77;;;3.22;91.23
65872;BME280;52653;50.080;21.992;2023-01-23T05:42:45;100749.64;;;3.23;91.25
65872;BME280;52653;50.080;21.992;2023-01-23T05:45:44;100749.72;;;3.25;91.16
65872;BME280;52653;50.080;21.992;2023-01-23T05:48:36;100753.80;;;3.27;90.87
65872;BME280;52653;50.080;21.992;2023-01-23T05:51:30;100762.66;;;3.35;91.40
65872;BME280;52653;50.080;21.992;2023-01-23T05:54:23;100768.12;;;3.40;91.34
65872;BME280;52653;50.080;21.992;2023-01-23T05:57:16;100769.21;;;3.30;90.49
65872;BME280;52653;50.080;21.992;2023-01-23T06:00:12;100771.09;;;3.22;90.79
65872;BME280;52653;50.080;21.992;2023-01-23T06:03:06;100773.38;;;3.18;91.17
65872;BME280;52653;50.080;21.992;2023-01-23T06:06:02;100777.05;;;3.16;91.40
65872;BME280;52653;50.080;21.992;2023-01-23T06:08:48;100781.71;;;3.19;91.51
65872;BME280;52653;50.080;21.992;2023-01-23T06:11:41;100788.53;;;3.20;91.20
65872;BME280;52653;50.080;21.992;2023-01-23T06:14:33;100789.05;;;3.20;90.91
65872;BME280;52653;50.080;21.992;2023-01-23T06:17:27;100793.09;;;3.18;90.70
65872;BME280;52653;50.080;21.992;2023-01-23T06:20:20;100798.04;;;3.23;91.37
65872;BME280;52653;50.080;21.992;2023-01-23T06:23:14;100804.58;;;3.30;91.44
65872;BME280;52653;50.080;21.992;2023-01-23T06:26:07;100806.65;;;3.26;90.94
65872;BME280;52653;50.080;21.992;2023-01-23T06:29:00;100810.70;;;3.28;91.53
65872;BME280;52653;50.080;21.992;2023-01-23T06:31:53;100813.54;;;3.29;91.68
65872;BME280;52653;50.080;21.992;2023-01-23T06:34:46;100814.55;;;3.32;91.89
65872;BME280;52653;50.080;21.992;2023-01-23T06:37:39;100819.10;;;3.29;91.32
65872;BME280;52653;50.080;21.992;2023-01-23T06:40:33;100819.15;;;3.26;90.97
65872;BME280;52653;50.080;21.992;2023-01-23T06:43:26;100825.95;;;3.27;91.21
65872;BME280;52653;50.080;21.992;2023-01-23T06:46:20;100826.39;;;3.29;91.08
65872;BME280;52653;50.080;21.992;2023-01-23T06:49:13;100827.52;;;3.31;91.20
65872;BME280;52653;50.080;21.992;2023-01-23T06:52:06;100825.88;;;3.36;91.61
65872;BME280;52653;50.080;21.992;2023-01-23T06:54:59;100823.61;;;3.40;91.56
65872;BME280;52653;50.080;21.992;2023-01-23T06:57:53;100826.03;;;3.37;91.36
65872;BME280;52653;50.080;21.992;2023-01-23T07:00:46;100828.02;;;3.34;91.18
65872;BME280;52653;50.080;21.992;2023-01-23T07:03:39;100828.73;;;3.34;91.20
65872;BME280;52653;50.080;21.992;2023-01-23T07:06:32;100827.84;;;3.38;91.05
65872;BME280;52653;50.080;21.992;2023-01-23T07:09:25;100825.85;;;3.43;91.12
65872;BME280;52653;50.080;21.992;2023-01-23T07:12:22;100823.25;;;3.54;91.49
65872;BME280;52653;50.080;21.992;2023-01-23T07:15:10;100824.41;;;3.65;91.47
65872;BME280;52653;50.080;21.992;2023-01-23T07:18:04;100825.84;;;3.73;91.51
65872;BME280;52653;50.080;21.992;2023-01-23T07:20:57;100824.56;;;3.76;91.33
65872;BME280;52653;50.080;21.992;2023-01-23T07:23:52;100828.96;;;3.73;91.23
65872;BME280;52653;50.080;21.992;2023-01-23T07:26:35;100826.33;;;3.68;91.15
65872;BME280;52653;50.080;21.992;2023-01-23T07:29:28;100831.27;;;3.67;91.17
65872;BME280;52653;50.080;21.992;2023-01-23T07:32:21;100830.21;;;3.70;91.30
65872;BME280;52653;50.080;21.992;2023-01-23T07:35:14;100828.09;;;3.73;91.14
65872;BME280;52653;50.080;21.992;2023-01-23T07:38:07;100833.98;;;3.77;91.06
65872;BME280;52653;50.080;21.992;2023-01-23T07:41:00;100834.20;;;3.81;91.09
65872;BME280;52653;50.080;21.992;2023-01-23T07:43:47;100834.83;;;3.91;91.57
65872;BME280;52653;50.080;21.992;2023-01-23T07:46:40;100837.90;;;4.02;91.37
65872;BME280;52653;50.080;21.992;2023-01-23T07:49:34;100838.98;;;4.10;91.73
65872;BME280;52653;50.080;21.992;2023-01-23T07:52:27;100838.30;;;4.15;91.25
65872;BME280;52653;50.080;21.992;2023-01-23T07:55:20;100838.55;;;4.17;91.10
65872;BME280;52653;50.080;21.992;2023-01-23T07:58:13;100839.83;;;4.18;90.76
65872;BME280;52653;50.080;21.992;2023-01-23T08:01:10;100841.15;;;4.20;90.60
65872;BME280;52653;50.080;21.992;2023-01-23T08:04:08;100838.62;;;4.26;90.72
65872;BME280;52653;50.080;21.992;2023-01-23T08:07:01;100840.02;;;4.30;90.20
65872;BME280;52653;50.080;21.992;2023-01-23T08:09:54;100845.53;;;4.33;89.74
65872;BME280;52653;50.080;21.992;2023-01-23T08:12:51;100845.73;;;4.33;89.57
65872;BME280;52653;50.080;21.992;2023-01-23T08:15:45;100845.46;;;4.31;89.59
65872;BME280;52653;50.080;21.992;2023-01-23T08:18:38;100847.69;;;4.27;89.55
65872;BME280;52653;50.080;21.992;2023-01-23T08:21:32;100854.87;;;4.20;89.38
65872;BME280;52653;50.080;21.992;2023-01-23T08:24:22;100859.97;;;4.14;89.53
65872;BME280;52653;50.080;21.992;2023-01-23T08:27:08;100862.30;;;4.11;89.48
65872;BME280;52653;50.080;21.992;2023-01-23T08:30:08;100868.59;;;4.08;89.39
65872;BME280;52653;50.080;21.992;2023-01-23T08:32:55;100867.88;;;4.04;89.21
65872;BME280;52653;50.080;21.992;2023-01-23T08:35:51;100868.50;;;4.03;89.55
65872;BME280;52653;50.080;21.992;2023-01-23T08:38:45;100869.04;;;4.03;89.58
65872;BME280;52653;50.080;21.992;2023-01-23T08:41:38;100869.20;;;4.03;89.69
65872;BME280;52653;50.080;21.992;2023-01-23T08:44:31;100867.15;;;4.04;89.71
65872;BME280;52653;50.080;21.992;2023-01-23T08:47:25;100866.00;;;4.05;89.77
65872;BME280;52653;50.080;21.992;2023-01-23T08:50:17;100869.98;;;4.05;89.71
65872;BME280;52653;50.080;21.992;2023-01-23T08:53:10;100870.65;;;3.96;89.69
65872;BME280;52653;50.080;21.992;2023-01-23T08:56:06;100874.63;;;3.93;89.77
65872;BME280;52653;50.080;21.992;2023-01-23T08:58:59;100874.60;;;3.92;89.88
65872;BME280;52653;50.080;21.992;2023-01-23T09:01:52;100875.98;;;3.92;90.01
65872;BME280;52653;50.080;21.992;2023-01-23T09:04:39;100882.52;;;3.94;90.07
65872;BME280;52653;50.080;21.992;2023-01-23T09:07:32;100879.77;;;3.99;90.11
65872;BME280;52653;50.080;21.992;2023-01-23T09:10:28;100886.38;;;4.03;89.93
65872;BME280;52653;50.080;21.992;2023-01-23T09:13:21;100888.85;;;4.04;89.82
65872;BME280;52653;50.080;21.992;2023-01-23T09:16:14;100885.23;;;4.08;89.98
65872;BME280;52653;50.080;21.992;2023-01-23T09:18:59;100887.23;;;4.14;89.91
65872;BME280;52653;50.080;21.992;2023-01-23T09:21:54;100885.65;;;4.21;89.87
65872;BME280;52653;50.080;21.992;2023-01-23T09:24:48;100882.98;;;4.28;90.04
65872;BME280;52653;50.080;21.992;2023-01-23T09:27:41;100884.92;;;4.32;89.85
65872;BME280;52653;50.080;21.992;2023-01-23T09:30:34;100882.00;;;4.29;89.51
65872;BME280;52653;50.080;21.992;2023-01-23T09:33:27;100879.23;;;4.25;89.49
65872;BME280;52653;50.080;21.992;2023-01-23T09:36:20;100877.35;;;4.26;89.66
65872;BME280;52653;50.080;21.992;2023-01-23T09:39:30;100881.67;;;4.29;89.69
65872;BME280;52653;50.080;21.992;2023-01-23T09:42:28;100878.30;;;4.35;89.68
65872;BME280;52653;50.080;21.992;2023-01-23T09:45:20;100871.48;;;4.42;89.73
65872;BME280;52653;50.080;21.992;2023-01-23T09:48:21;100874.36;;;4.53;89.64
65872;BME280;52653;50.080;21.992;2023-01-23T09:51:15;100875.43;;;4.65;89.78
65872;BME280;52653;50.080;21.992;2023-01-23T09:54:19;100879.66;;;4.79;89.68
65872;BME280;52653;50.080;21.992;2023-01-23T09:57:18;100880.02;;;4.87;89.43
65872;BME280;52653;50.080;21.992;2023-01-23T10:00:19;100878.10;;;4.91;88.98
65872;BME280;52653;50.080;21.992;2023-01-23T10:03:15;100873.46;;;4.93;88.74
65872;BME280;52653;50.080;21.992;2023-01-23T10:06:17;100872.39;;;4.92;88.56
65872;BME280;52653;50.080;21.992;2023-01-23T10:09:25;100870.13;;;4.92;88.12
65872;BME280;52653;50.080;21.992;2023-01-23T10:12:31;100871.68;;;4.96;88.04
65872;BME280;52653;50.080;21.992;2023-01-23T10:15:35;100870.11;;;5.00;88.03
65872;BME280;52653;50.080;21.992;2023-01-23T10:18:34;100870.47;;;5.05;87.89
65872;BME280;52653;50.080;21.992;2023-01-23T10:21:32;100868.84;;;5.11;87.82
65872;BME280;52653;50.080;21.992;2023-01-23T10:24:42;100870.41;;;5.20;87.68
65872;BME280;52653;50.080;21.992;2023-01-23T10:27:40;100871.02;;;5.26;87.39
65872;BME280;52653;50.080;21.992;2023-01-23T10:30:36;100873.39;;;5.29;87.38
65872;BME280;52653;50.080;21.992;2023-01-23T10:33:30;100871.00;;;5.30;87.20
65872;BME280;52653;50.080;21.992;2023-01-23T10:36:28;100872.75;;;5.30;87.12
65872;BME280;52653;50.080;21.992;2023-01-23T10:39:50;100872.91;;;5.35;87.04
65872;BME280;52653;50.080;21.992;2023-01-23T10:42:46;100873.27;;;5.39;86.90
65872;BME280;52653;50.080;21.992;2023-01-23T10:45:39;100871.98;;;5.42;86.75
65872;BME280;52653;50.080;21.992;2023-01-23T10:48:39;100867.85;;;5.47;86.79
65872;BME280;52653;50.080;21.992;2023-01-23T10:51:45;100867.06;;;5.49;86.57
65872;BME280;52653;50.080;21.992;2023-01-23T10:54:46;100862.00;;;5.53;86.79
65872;BME280;52653;50.080;21.992;2023-01-23T10:58:02;100859.04;;;5.58;86.77
65872;BME280;52653;50.080;21.992;2023-01-23T11:00:54;100853.43;;;5.61;86.74
65872;BME280;52653;50.080;21.992;2023-01-23T11:03:47;100854.10;;;5.56;86.60
65872;BME280;52653;50.080;21.992;2023-01-23T11:06:40;100856.66;;;5.46;86.43
65872;BME280;52653;50.080;21.992;2023-01-23T11:09:34;100853.90;;;5.38;86.61
65872;BME280;52653;50.080;21.992;2023-01-23T11:12:50;100854.36;;;5.36;86.75
65872;BME280;52653;50.080;21.992;2023-01-23T11:15:48;100847.73;;;5.40;86.96
65872;BME280;52653;50.080;21.992;2023-01-23T11:18:40;100848.66;;;5.46;86.77
65872;BME280;52653;50.080;21.992;2023-01-23T11:21:37;100843.72;;;5.53;87.03
65872;BME280;52653;50.080;21.992;2023-01-23T11:24:43;100843.46;;;5.64;87.11
65872;BME280;52653;50.080;21.992;2023-01-23T11:27:37;100846.06;;;5.73;86.92
65872;BME280;52653;50.080;21.992;2023-01-23T11:30:36;100844.40;;;5.75;86.55
65872;BME280;52653;50.080;21.992;2023-01-23T11:33:26;100847.66;;;5.74;86.37
65872;BME280;52653;50.080;21.992;2023-01-23T11:36:40;100845.41;;;5.70;86.38
65872;BME280;52653;50.080;21.992;2023-01-23T11:39:46;100845.80;;;5.66;86.42
65872;BME280;52653;50.080;21.992;2023-01-23T11:42:44;100843.58;;;5.68;86.55
65872;BME280;52653;50.080;21.992;2023-01-23T11:45:42;100845.11;;;5.71;86.33
65872;BME280;52653;50.080;21.992;2023-01-23T11:48:48;100843.11;;;5.78;86.61
65872;BME280;52653;50.080;21.992;2023-01-23T11:51:50;100841.80;;;5.84;86.27
65872;BME280;52653;50.080;21.992;2023-01-23T11:54:59;100839.20;;;5.89;86.32
65872;BME280;52653;50.080;21.992;2023-01-23T11:57:58;100839.83;;;5.97;86.09
65872;BME280;52653;50.080;21.992;2023-01-23T12:01:02;100844.10;;;5.99;86.16
65872;BME280;52653;50.080;21.992;2023-01-23T12:04:27;100842.08;;;6.01;86.07
65872;BME280;52653;50.080;21.992;2023-01-23T12:07:18;100842.67;;;5.98;85.79
65872;BME280;52653;50.080;21.992;2023-01-23T12:10:21;100846.21;;;5.95;85.80
65872;BME280;52653;50.080;21.992;2023-01-23T12:13:27;100846.56;;;5.95;85.74
65872;BME280;52653;50.080;21.992;2023-01-23T12:16:36;100847.17;;;5.98;85.89
65872;BME280;52653;50.080;21.992;2023-01-23T12:19:56;100847.82;;;6.05;86.10
65872;BME280;52653;50.080;21.992;2023-01-23T12:23:00;100848.04;;;6.16;85.91
65872;BME280;52653;50.080;21.992;2023-01-23T12:25:52;100844.58;;;6.21;85.91
65872;BME280;52653;50.080;21.992;2023-01-23T12:32:01;100850.92;;;6.23;85.74
65872;BME280;52653;50.080;21.992;2023-01-23T12:35:00;100848.43;;;6.22;85.69
65872;BME280;52653;50.080;21.992;2023-01-23T12:38:08;100850.13;;;6.16;85.57
65872;BME280;52653;50.080;21.992;2023-01-23T12:41:07;100847.40;;;6.12;85.39
65872;BME280;52653;50.080;21.992;2023-01-23T12:43:58;100852.27;;;6.12;85.59
65872;BME280;52653;50.080;21.992;2023-01-23T12:46:56;100856.28;;;6.13;85.40
65872;BME280;52653;50.080;21.992;2023-01-23T12:49:53;100851.79;;;6.13;85.49
65872;BME280;52653;50.080;21.992;2023-01-23T12:52:50;100854.09;;;6.10;85.32
65872;BME280;52653;50.080;21.992;2023-01-23T12:55:55;100853.05;;;6.05;85.47
65872;BME280;52653;50.080;21.992;2023-01-23T12:58:44;100854.16;;;5.98;85.39
65872;BME280;52653;50.080;21.992;2023-01-23T13:01:51;100856.27;;;5.85;85.04
65872;BME280;52653;50.080;21.992;2023-01-23T13:04:59;100857.05;;;5.74;85.37
65872;BME280;52653;50.080;21.992;2023-01-23T13:08:00;100852.93;;;5.71;85.76
65872;BME280;52653;50.080;21.992;2023-01-23T13:11:05;100856.19;;;5.70;85.71
65872;BME280;52653;50.080;21.992;2023-01-23T13:14:23;100854.05;;;5.69;85.83
65872;BME280;52653;50.080;21.992;2023-01-23T13:17:36;100853.29;;;5.71;85.90
65872;BME280;52653;50.080;21.992;2023-01-23T13:20:33;100855.98;;;5.69;85.86
65872;BME280;52653;50.080;21.992;2023-01-23T13:23:44;100854.00;;;5.62;85.80
65872;BME280;52653;50.080;21.992;2023-01-23T13:26:37;100857.28;;;5.53;85.87
65872;BME280;52653;50.080;21.992;2023-01-23T13:29:45;100861.91;;;5.42;86.08
65872;BME280;52653;50.080;21.992;2023-01-23T13:32:41;100864.99;;;5.32;86.33
65872;BME280;52653;50.080;21.992;2023-01-23T13:35:53;100871.91;;;5.26;86.47
65872;BME280;52653;50.080;21.992;2023-01-23T13:42:44;100878.45;;;5.16;86.86
65872;BME280;52653;50.080;21.992;2023-01-23T13:45:33;100880.80;;;5.14;86.97
65872;BME280;52653;50.080;21.992;2023-01-23T13:48:52;100881.91;;;5.12;87.16
65872;BME280;52653;50.080;21.992;2023-01-23T13:52:23;100886.20;;;5.10;87.38
65872;BME280;52653;50.080;21.992;2023-01-23T13:55:49;100883.48;;;5.08;87.64
65872;BME280;52653;50.080;21.992;2023-01-23T13:59:23;100889.33;;;5.02;87.56
65872;BME280;52653;50.080;21.992;2023-01-23T14:02:35;100888.77;;;4.89;87.61
65872;BME280;52653;50.080;21.992;2023-01-23T14:06:07;100889.60;;;4.80;87.96
65872;BME280;52653;50.080;21.992;2023-01-23T14:16:33;100889.65;;;4.81;88.55
65872;BME280;52653;50.080;21.992;2023-01-23T14:20:02;100888.99;;;4.78;88.47
65872;BME280;52653;50.080;21.992;2023-01-23T14:23:19;100889.78;;;4.76;88.82
65872;BME280;52653;50.080;21.992;2023-01-23T14:26:13;100893.55;;;4.74;88.87
65872;BME280;52653;50.080;21.992;2023-01-23T14:29:21;100889.95;;;4.71;88.90
65872;BME280;52653;50.080;21.992;2023-01-23T14:32:22;100888.48;;;4.70;88.99
65872;BME280;52653;50.080;21.992;2023-01-23T14:35:21;100889.23;;;4.70;88.97
65872;BME280;52653;50.080;21.992;2023-01-23T14:38:19;100892.59;;;4.72;88.84
65872;BME280;52653;50.080;21.992;2023-01-23T14:41:17;100888.77;;;4.72;88.77
65872;BME280;52653;50.080;21.992;2023-01-23T14:44:23;100891.27;;;4.69;88.45
65872;BME280;52653;50.080;21.992;2023-01-23T14:47:09;100890.05;;;4.70;88.97
65872;BME280;52653;50.080;21.992;2023-01-23T14:50:10;100892.52;;;4.79;89.53
65872;BME280;52653;50.080;21.992;2023-01-23T14:53:03;100896.73;;;4.88;89.56
65872;BME280;52653;50.080;21.992;2023-01-23T14:55:57;100900.19;;;4.92;89.36
65872;BME280;52653;50.080;21.992;2023-01-23T14:58:50;100902.48;;;4.93;89.33
65872;BME280;52653;50.080;21.992;2023-01-23T15:01:43;100902.95;;;4.91;89.19
65872;BME280;52653;50.080;21.992;2023-01-23T15:04:30;100905.62;;;4.89;89.04
65872;BME280;52653;50.080;21.992;2023-01-23T15:07:23;100909.13;;;4.85;88.68
65872;BME280;52653;50.080;21.992;2023-01-23T15:10:21;100909.92;;;4.80;88.40
65872;BME280;52653;50.080;21.992;2023-01-23T15:13:10;100907.94;;;4.78;88.86
65872;BME280;52653;50.080;21.992;2023-01-23T15:16:14;100906.64;;;4.80;88.97
65872;BME280;52653;50.080;21.992;2023-01-23T15:19:21;100910.00;;;4.85;89.21
65872;BME280;52653;50.080;21.992;2023-01-23T15:22:05;100908.33;;;4.87;89.04
65872;BME280;52653;50.080;21.992;2023-01-23T15:24:58;100909.36;;;4.86;88.99
65872;BME280;52653;50.080;21.992;2023-01-23T15:28:37;100912.11;;;4.86;88.95
65872;BME280;52653;50.080;21.992;2023-01-23T15:31:28;100914.94;;;4.87;88.93
65872;BME280;52653;50.080;21.992;2023-01-23T15:34:22;100916.43;;;4.85;89.02